Halcyon — C6WB4 — position and weather

sailwx.info

Track history (hours):
 
Tides and Currents Weather Stations Pressure Air Temp Water Temp Dewpoint Dewpoint Depression Visibility Wind Speed Wind Dir Waves Ship Positions

Halcyon

Last reported at 2017-Nov-16 17:00 UTC. Time now 2017-Nov-22 14:48 UTC.
Position N 34°53' E 139°20'.

Length 148 m; draft 7.3 m.

Type: Ship. MMSI: 311033860.

Date/timePositionNaut miles runAvg speedWind from/ knotsBaromVisibWave heightAir tempDewpointWater temp
2017-Nov-16 17:00N 34°53' E 139°20'917.4
2017-Nov-16 16:30N 34°58' E 139°28'917.4
2017-Nov-16 16:00N 35°03' E 139°37'917.7
2017-Nov-16 15:30N 35°09' E 139°45'713.8
2017-Nov-16 15:00N 35°16' E 139°46'611.5
2017-Nov-16 14:30N 35°21' E 139°42'611.2
2017-Nov-16 14:00N 35°27' E 139°41'0 0.6
2017-Nov-16 13:28N 35°26' E 139°41'0 0.0
2017-Nov-16 12:58N 35°26' E 139°41'0 0.0
2017-Nov-16 12:28N 35°26' E 139°41'0 0.0
2017-Nov-16 11:58N 35°26' E 139°41'0 0.0
2017-Nov-16 11:28N 35°26' E 139°41'0 0.0
2017-Nov-16 10:58N 35°26' E 139°41'0 0.0
2017-Nov-16 10:28N 35°26' E 139°41'0 0.0
2017-Nov-16 09:58N 35°26' E 139°41'0 0.0
2017-Nov-16 09:28N 35°26' E 139°41'0 0.0
2017-Nov-16 08:58N 35°26' E 139°41'0 0.4
2017-Nov-16 08:30N 35°26' E 139°41'3 5.1
2017-Nov-16 08:00N 35°26' E 139°44'510.2
2017-Nov-16 07:30N 35°29' E 139°49'511.0
2017-Nov-16 07:00N 35°34' E 139°49'2 0.3
2017-Nov-15 23:40N 35°36' E 139°48'0 0.0
2017-Nov-15 22:13N 35°36' E 139°48'0 0.0
2017-Nov-15 21:58N 35°36' E 139°48'0 0.0
2017-Nov-15 21:19N 35°36' E 139°48'0 0.0
2017-Nov-15 20:49N 35°36' E 139°48'0 0.0
2017-Nov-15 20:04N 35°36' E 139°48'0 0.0
2017-Nov-15 19:46N 35°36' E 139°48'0 0.0
2017-Nov-15 19:28N 35°36' E 139°48'0 0.0
2017-Nov-15 18:58N 35°36' E 139°48'0 0.0
2017-Nov-15 18:28N 35°36' E 139°48'0 0.0
2017-Nov-15 17:40N 35°36' E 139°48'0 0.0
2017-Nov-15 17:10N 35°36' E 139°48'0 0.0
2017-Nov-15 16:58N 35°36' E 139°48'0 0.0
2017-Nov-15 16:22N 35°36' E 139°48'0 0.0
2017-Nov-15 15:52N 35°36' E 139°48'0 0.0
2017-Nov-15 15:28N 35°36' E 139°48'0 0.0
2017-Nov-15 14:58N 35°36' E 139°48'0 0.0
2017-Nov-15 14:22N 35°36' E 139°48'0 1.1
2017-Nov-15 14:00N 35°36' E 139°47'3 6.3
2017-Nov-15 13:30N 35°34' E 139°50'510.7
2017-Nov-15 13:01N 35°28' E 139°51'714.5
2017-Nov-15 12:30N 35°23' E 139°46'611.5
2017-Nov-15 12:00N 35°17' E 139°46'612.8
2017-Nov-15 11:30N 35°11' E 139°47'815.3
2017-Nov-15 11:00N 35°04' E 139°42'817.0
2017-Nov-15 10:30N 34°59' E 139°34'917.2
2017-Nov-15 10:00N 34°53' E 139°26'  
2017-Nov-13 02:00N 31°06' E 122°22'813.9
2017-Nov-13 01:28N 31°09' E 122°14'613.7
2017-Nov-13 01:00N 31°12' E 122°08'713.5
2017-Nov-13 00:30N 31°15' E 122°00'713.8
2017-Nov-13 00:01N 31°16' E 121°52'612.8
2017-Nov-12 23:31N 31°18' E 121°45'5 8.5
2017-Nov-12 22:57N 31°20' E 121°40'0 0.0
2017-Nov-12 22:30N 31°20' E 121°40'0 0.1
2017-Nov-12 22:00N 31°20' E 121°40'0 0.1
2017-Nov-12 21:30N 31°20' E 121°40'0 0.1
2017-Nov-12 21:00N 31°20' E 121°40'0 0.1
2017-Nov-12 20:30N 31°20' E 121°40'0 0.1
2017-Nov-12 20:00N 31°20' E 121°40'0 0.1
2017-Nov-12 19:30N 31°20' E 121°40'0 0.1
2017-Nov-12 19:00N 31°20' E 121°40'0 0.1
2017-Nov-12 18:30N 31°20' E 121°40'0 0.0
2017-Nov-12 18:00N 31°20' E 121°40'0 0.1
2017-Nov-12 17:30N 31°20' E 121°40'0 0.0
2017-Nov-12 17:00N 31°20' E 121°40'0 0.0
2017-Nov-12 16:27N 31°20' E 121°40'0 0.0
2017-Nov-12 16:00N 31°20' E 121°40'0 0.0
2017-Nov-12 15:27N 31°20' E 121°40'0 0.0
2017-Nov-12 15:00N 31°20' E 121°40'0 0.0
2017-Nov-12 14:30N 31°20' E 121°40'0 0.0
2017-Nov-12 14:00N 31°20' E 121°40'0 0.1
2017-Nov-12 13:30N 31°20' E 121°40'0 0.1
2017-Nov-12 13:00N 31°20' E 121°40'0 0.0
2017-Nov-12 12:30N 31°20' E 121°40'0 0.1
2017-Nov-12 12:00N 31°20' E 121°40'0 0.0
2017-Nov-12 11:30N 31°20' E 121°40'0 0.0
2017-Nov-12 11:00N 31°20' E 121°40'0 0.0
2017-Nov-12 10:30N 31°20' E 121°40'0 0.0
2017-Nov-12 09:57N 31°20' E 121°40'0 0.0
2017-Nov-12 09:30N 31°20' E 121°40'2 4.5
2017-Nov-12 09:00N 31°19' E 121°43'713.3
2017-Nov-12 08:30N 31°14' E 121°48'714.5
2017-Nov-12 08:00N 31°09' E 121°54'713.5
2017-Nov-12 07:31N 31°05' E 122°00'612.8
2017-Nov-12 07:00N 31°03' E 122°08'611.0
2017-Nov-12 06:30N 31°03' E 122°14'  
2017-Nov-09 11:33N 34°59' E 139°40'116.4
2017-Nov-09 11:30N 35°00' E 139°40'816.8
2017-Nov-09 11:00N 35°08' E 139°44'714.3
2017-Nov-09 10:31N 35°15' E 139°46'612.3
2017-Nov-09 10:01N 35°20' E 139°42'612.4
2017-Nov-09 09:31N 35°26' E 139°42'1 2.0
2017-Nov-09 08:58N 35°26' E 139°41'0 0.0
2017-Nov-09 08:28N 35°26' E 139°41'0 0.0
2017-Nov-09 07:58N 35°26' E 139°41'0 0.0
2017-Nov-09 07:28N 35°26' E 139°41'0 0.0
2017-Nov-09 06:58N 35°26' E 139°41'0 0.0
2017-Nov-09 06:28N 35°26' E 139°41'0 0.0
2017-Nov-09 05:55N 35°26' E 139°41'0 0.0
2017-Nov-09 05:28N 35°26' E 139°41'0 0.0
2017-Nov-09 04:58N 35°26' E 139°41'0 0.0
2017-Nov-09 04:28N 35°26' E 139°41'0 0.0
2017-Nov-09 03:58N 35°26' E 139°41'0 0.9
2017-Nov-09 03:30N 35°27' E 139°41'3 5.8
2017-Nov-09 03:00N 35°26' E 139°45'612.3
2017-Nov-09 02:30N 35°30' E 139°51'612.8
2017-Nov-09 02:00N 35°36' E 139°47'1 0.5
2017-Nov-09 00:52N 35°36' E 139°48'0 0.0
2017-Nov-08 23:46N 35°36' E 139°48'0 0.0
2017-Nov-08 23:28N 35°36' E 139°48'0 0.0
2017-Nov-08 22:52N 35°36' E 139°48'0 0.0
2017-Nov-08 22:22N 35°36' E 139°48'0 0.0
2017-Nov-08 21:58N 35°36' E 139°48'0 0.0
2017-Nov-08 18:25N 35°36' E 139°48'0 0.0
2017-Nov-08 17:55N 35°36' E 139°48'0 0.0
2017-Nov-08 17:25N 35°36' E 139°48'0 0.0
2017-Nov-08 16:55N 35°36' E 139°48'0 0.0
2017-Nov-08 15:10N 35°36' E 139°48'0 0.0
2017-Nov-08 14:52N 35°36' E 139°48'0 0.0
2017-Nov-08 11:27N 35°36' E 139°48'1 1.6
2017-Nov-08 11:00N 35°35' E 139°47'3 6.8
2017-Nov-08 10:30N 35°33' E 139°51'2 3.8
2017-Nov-08 10:00N 35°33' E 139°53'1 1.3
2017-Nov-08 09:24N 35°32' E 139°53'3 5.7
2017-Nov-08 08:56N 35°29' E 139°52'410.1
2017-Nov-08 08:30N 35°26' E 139°48'611.6
2017-Nov-08 08:00N 35°21' E 139°45'611.1
2017-Nov-08 07:30N 35°16' E 139°47'612.5
2017-Nov-08 07:00N 35°09' E 139°46'815.0
2017-Nov-08 06:30N 35°02' E 139°43'  
Track history (hours):
 
Tides and Currents Weather Stations Pressure Air Temp Water Temp Dewpoint Dewpoint Depression Visibility Wind Speed Wind Dir Waves Ship Positions

Halcyon

Last reported at 2017-Nov-16 17:00 UTC. Time now 2017-Nov-22 14:48 UTC.
Position N 34°53' E 139°20'.

Length 148 m; draft 7.3 m.

Type: Ship. MMSI: 311033860.

Date/timePositionNaut miles runAvg speedWind from/ knotsBaromVisibWave heightAir tempDewpointWater temp
2017-Nov-16 17:00N 34°53' E 139°20'917.4
2017-Nov-16 16:30N 34°58' E 139°28'917.4
2017-Nov-16 16:00N 35°03' E 139°37'917.7
2017-Nov-16 15:30N 35°09' E 139°45'713.8
2017-Nov-16 15:00N 35°16' E 139°46'611.5
2017-Nov-16 14:30N 35°21' E 139°42'611.2
2017-Nov-16 14:00N 35°27' E 139°41'0 0.6
2017-Nov-16 13:28N 35°26' E 139°41'0 0.0
2017-Nov-16 12:58N 35°26' E 139°41'0 0.0
2017-Nov-16 12:28N 35°26' E 139°41'0 0.0
2017-Nov-16 11:58N 35°26' E 139°41'0 0.0
2017-Nov-16 11:28N 35°26' E 139°41'0 0.0
2017-Nov-16 10:58N 35°26' E 139°41'0 0.0
2017-Nov-16 10:28N 35°26' E 139°41'0 0.0
2017-Nov-16 09:58N 35°26' E 139°41'0 0.0
2017-Nov-16 09:28N 35°26' E 139°41'0 0.0
2017-Nov-16 08:58N 35°26' E 139°41'0 0.4
2017-Nov-16 08:30N 35°26' E 139°41'3 5.1
2017-Nov-16 08:00N 35°26' E 139°44'510.2
2017-Nov-16 07:30N 35°29' E 139°49'511.0
2017-Nov-16 07:00N 35°34' E 139°49'2 0.3
2017-Nov-15 23:40N 35°36' E 139°48'0 0.0
2017-Nov-15 22:13N 35°36' E 139°48'0 0.0
2017-Nov-15 21:58N 35°36' E 139°48'0 0.0
2017-Nov-15 21:19N 35°36' E 139°48'0 0.0
2017-Nov-15 20:49N 35°36' E 139°48'0 0.0
2017-Nov-15 20:04N 35°36' E 139°48'0 0.0
2017-Nov-15 19:46N 35°36' E 139°48'0 0.0
2017-Nov-15 19:28N 35°36' E 139°48'0 0.0
2017-Nov-15 18:58N 35°36' E 139°48'0 0.0
2017-Nov-15 18:28N 35°36' E 139°48'0 0.0
2017-Nov-15 17:40N 35°36' E 139°48'0 0.0
2017-Nov-15 17:10N 35°36' E 139°48'0 0.0
2017-Nov-15 16:58N 35°36' E 139°48'0 0.0
2017-Nov-15 16:22N 35°36' E 139°48'0 0.0
2017-Nov-15 15:52N 35°36' E 139°48'0 0.0
2017-Nov-15 15:28N 35°36' E 139°48'0 0.0
2017-Nov-15 14:58N 35°36' E 139°48'0 0.0
2017-Nov-15 14:22N 35°36' E 139°48'0 1.1
2017-Nov-15 14:00N 35°36' E 139°47'3 6.3
2017-Nov-15 13:30N 35°34' E 139°50'510.7
2017-Nov-15 13:01N 35°28' E 139°51'714.5
2017-Nov-15 12:30N 35°23' E 139°46'611.5
2017-Nov-15 12:00N 35°17' E 139°46'612.8
2017-Nov-15 11:30N 35°11' E 139°47'815.3
2017-Nov-15 11:00N 35°04' E 139°42'817.0
2017-Nov-15 10:30N 34°59' E 139°34'917.2
2017-Nov-15 10:00N 34°53' E 139°26'  
2017-Nov-13 02:00N 31°06' E 122°22'813.9
2017-Nov-13 01:28N 31°09' E 122°14'613.7
2017-Nov-13 01:00N 31°12' E 122°08'713.5
2017-Nov-13 00:30N 31°15' E 122°00'713.8
2017-Nov-13 00:01N 31°16' E 121°52'612.8
2017-Nov-12 23:31N 31°18' E 121°45'5 8.5
2017-Nov-12 22:57N 31°20' E 121°40'0 0.0
2017-Nov-12 22:30N 31°20' E 121°40'0 0.1
2017-Nov-12 22:00N 31°20' E 121°40'0 0.1
2017-Nov-12 21:30N 31°20' E 121°40'0 0.1
2017-Nov-12 21:00N 31°20' E 121°40'0 0.1
2017-Nov-12 20:30N 31°20' E 121°40'0 0.1
2017-Nov-12 20:00N 31°20' E 121°40'0 0.1
2017-Nov-12 19:30N 31°20' E 121°40'0 0.1
2017-Nov-12 19:00N 31°20' E 121°40'0 0.1
2017-Nov-12 18:30N 31°20' E 121°40'0 0.0
2017-Nov-12 18:00N 31°20' E 121°40'0 0.1
2017-Nov-12 17:30N 31°20' E 121°40'0 0.0
2017-Nov-12 17:00N 31°20' E 121°40'0 0.0
2017-Nov-12 16:27N 31°20' E 121°40'0 0.0
2017-Nov-12 16:00N 31°20' E 121°40'0 0.0
2017-Nov-12 15:27N 31°20' E 121°40'0 0.0
2017-Nov-12 15:00N 31°20' E 121°40'0 0.0
2017-Nov-12 14:30N 31°20' E 121°40'0 0.0
2017-Nov-12 14:00N 31°20' E 121°40'0 0.1
2017-Nov-12 13:30N 31°20' E 121°40'0 0.1
2017-Nov-12 13:00N 31°20' E 121°40'0 0.0
2017-Nov-12 12:30N 31°20' E 121°40'0 0.1
2017-Nov-12 12:00N 31°20' E 121°40'0 0.0
2017-Nov-12 11:30N 31°20' E 121°40'0 0.0
2017-Nov-12 11:00N 31°20' E 121°40'0 0.0
2017-Nov-12 10:30N 31°20' E 121°40'0 0.0
2017-Nov-12 09:57N 31°20' E 121°40'0 0.0
2017-Nov-12 09:30N 31°20' E 121°40'2 4.5
2017-Nov-12 09:00N 31°19' E 121°43'713.3
2017-Nov-12 08:30N 31°14' E 121°48'714.5
2017-Nov-12 08:00N 31°09' E 121°54'713.5
2017-Nov-12 07:31N 31°05' E 122°00'612.8
2017-Nov-12 07:00N 31°03' E 122°08'611.0
2017-Nov-12 06:30N 31°03' E 122°14'  
2017-Nov-09 11:33N 34°59' E 139°40'116.4
2017-Nov-09 11:30N 35°00' E 139°40'816.8
2017-Nov-09 11:00N 35°08' E 139°44'714.3
2017-Nov-09 10:31N 35°15' E 139°46'612.3
2017-Nov-09 10:01N 35°20' E 139°42'612.4
2017-Nov-09 09:31N 35°26' E 139°42'1 2.0
2017-Nov-09 08:58N 35°26' E 139°41'0 0.0
2017-Nov-09 08:28N 35°26' E 139°41'0 0.0
2017-Nov-09 07:58N 35°26' E 139°41'0 0.0
2017-Nov-09 07:28N 35°26' E 139°41'0 0.0
2017-Nov-09 06:58N 35°26' E 139°41'0 0.0
2017-Nov-09 06:28N 35°26' E 139°41'0 0.0
2017-Nov-09 05:55N 35°26' E 139°41'0 0.0
2017-Nov-09 05:28N 35°26' E 139°41'0 0.0
2017-Nov-09 04:58N 35°26' E 139°41'0 0.0
2017-Nov-09 04:28N 35°26' E 139°41'0 0.0
2017-Nov-09 03:58N 35°26' E 139°41'0 0.9
2017-Nov-09 03:30N 35°27' E 139°41'3 5.8
2017-Nov-09 03:00N 35°26' E 139°45'612.3
2017-Nov-09 02:30N 35°30' E 139°51'612.8
2017-Nov-09 02:00N 35°36' E 139°47'1 0.5
2017-Nov-09 00:52N 35°36' E 139°48'0 0.0
2017-Nov-08 23:46N 35°36' E 139°48'0 0.0
2017-Nov-08 23:28N 35°36' E 139°48'0 0.0
2017-Nov-08 22:52N 35°36' E 139°48'0 0.0
2017-Nov-08 22:22N 35°36' E 139°48'0 0.0
2017-Nov-08 21:58N 35°36' E 139°48'0 0.0
2017-Nov-08 18:25N 35°36' E 139°48'0 0.0
2017-Nov-08 17:55N 35°36' E 139°48'0 0.0
2017-Nov-08 17:25N 35°36' E 139°48'0 0.0
2017-Nov-08 16:55N 35°36' E 139°48'0 0.0
2017-Nov-08 15:10N 35°36' E 139°48'0 0.0
2017-Nov-08 14:52N 35°36' E 139°48'0 0.0
2017-Nov-08 11:27N 35°36' E 139°48'1 1.6
2017-Nov-08 11:00N 35°35' E 139°47'3 6.8
2017-Nov-08 10:30N 35°33' E 139°51'2 3.8
2017-Nov-08 10:00N 35°33' E 139°53'1 1.3
2017-Nov-08 09:24N 35°32' E 139°53'3 5.7
2017-Nov-08 08:56N 35°29' E 139°52'410.1
2017-Nov-08 08:30N 35°26' E 139°48'611.6
2017-Nov-08 08:00N 35°21' E 139°45'611.1
2017-Nov-08 07:30N 35°16' E 139°47'612.5
2017-Nov-08 07:00N 35°09' E 139°46'815.0
2017-Nov-08 06:30N 35°02' E 139°43'  

Dump ship's entire track history